createdAt,value
2024-02-09T00:02:07.912Z,100046.75
2024-02-09T00:04:39.626Z,100042.09
2024-02-09T00:07:09.351Z,100041.05
2024-02-09T00:09:38.138Z,100030.09
2024-02-09T00:12:07.799Z,100031.83
2024-02-09T00:14:37.165Z,100029.77
2024-02-09T00:17:05.788Z,100035.45
2024-02-09T00:19:35.087Z,100038.42
2024-02-09T00:22:05.671Z,100037.41
2024-02-09T00:24:34.602Z,100038.10
2024-02-09T00:27:06.011Z,100044.63
2024-02-09T00:29:34.811Z,100051.67
2024-02-09T00:32:05.736Z,100048.26
2024-02-09T00:34:36.439Z,100044.77
2024-02-09T00:37:07.973Z,100039.08
2024-02-09T00:39:36.587Z,100037.55
2024-02-09T00:42:05.609Z,100030.55
2024-02-09T00:44:34.482Z,100035.40
2024-02-09T00:47:03.423Z,100035.83
2024-02-09T00:49:33.699Z,100034.91
2024-02-09T00:52:03.259Z,100034.81
2024-02-09T00:54:31.814Z,100033.99
2024-02-09T00:57:00.434Z,100027.52
2024-02-09T00:59:28.964Z,100027.37
2024-02-09T01:24:01.419Z,99984.27
2024-02-09T01:26:48.609Z,99981.89
2024-02-09T01:29:36.559Z,99970.32
2024-02-09T01:32:23.900Z,99958.55
2024-02-09T01:35:11.176Z,99957.18
2024-02-09T01:37:58.358Z,99950.94
2024-02-09T01:40:45.120Z,99946.41
2024-02-09T01:43:32.268Z,99933.25
2024-02-09T01:46:19.161Z,99930.05
2024-02-09T01:49:05.974Z,99917.91
2024-02-09T01:51:53.646Z,99910.78
2024-02-09T01:54:41.808Z,99913.30
2024-02-09T01:57:29.253Z,99911.15
2024-02-09T02:00:17.142Z,99905.39
2024-02-09T02:03:04.499Z,99901.38
2024-02-09T02:05:52.521Z,99892.40
2024-02-09T02:08:40.845Z,99890.77
2024-02-09T02:11:27.473Z,99886.73
2024-02-09T02:14:14.386Z,99894.90
2024-02-09T02:17:01.221Z,99895.31
2024-02-09T02:19:48.703Z,99892.27
2024-02-09T02:22:46.298Z,99893.14
2024-02-09T02:25:33.421Z,99892.15
2024-02-09T02:28:20.886Z,99884.58
2024-02-09T02:31:08.003Z,99889.08
2024-02-09T02:33:55.051Z,99889.96
2024-02-09T02:36:42.142Z,99892.89
2024-02-09T02:39:29.144Z,99896.80
2024-02-09T02:41:57.828Z,99890.57
2024-02-09T02:44:26.352Z,99888.70
2024-02-09T02:46:55.041Z,99883.73
2024-02-09T02:49:41.934Z,99881.92
2024-02-09T02:52:28.788Z,99876.33
2024-02-09T02:55:15.925Z,99876.52
2024-02-09T02:58:02.946Z,99880.52
2024-02-09T03:00:49.952Z,99875.64
2024-02-09T03:03:36.931Z,99871.90
2024-02-09T03:06:07.401Z,99872.27
2024-02-09T03:08:47.052Z,99873.15
2024-02-09T03:11:18.501Z,99866.23
2024-02-09T03:13:51.335Z,99867.80
2024-02-09T03:16:20.761Z,99865.38
2024-02-09T03:18:49.436Z,99863.83
2024-02-09T03:21:28.041Z,99852.44
2024-02-09T03:23:57.809Z,99854.86
2024-02-09T03:26:26.651Z,99853.46
2024-02-09T03:28:55.120Z,99852.38
2024-02-09T03:31:25.770Z,99856.48
2024-02-09T03:33:56.850Z,99862.48
2024-02-09T03:36:25.626Z,99861.58
2024-02-09T03:38:55.536Z,99864.81
2024-02-09T03:41:26.944Z,99866.12
2024-02-09T03:43:55.732Z,99869.52
2024-02-09T03:46:26.847Z,99874.34
2024-02-09T03:48:55.788Z,99876.38
2024-02-09T03:51:26.518Z,99878.08
2024-02-09T03:53:55.117Z,99877.66
2024-02-09T03:56:24.030Z,99874.59
2024-02-09T03:58:52.765Z,99875.86
2024-02-09T04:01:24.459Z,99880.60
2024-02-09T04:03:53.343Z,99881.04
2024-02-09T04:06:25.894Z,99883.21
2024-02-09T04:08:56.042Z,99882.85
2024-02-09T04:11:25.442Z,99886.84
2024-02-09T04:13:54.355Z,99879.42
2024-02-09T04:16:23.183Z,99875.72
2024-02-09T04:18:52.026Z,99870.92
2024-02-09T04:21:20.621Z,99872.85
2024-02-09T04:23:49.654Z,99872.09
2024-02-09T04:26:18.306Z,99873.20
2024-02-09T04:28:47.136Z,99878.45
2024-02-09T04:31:16.011Z,99878.17
2024-02-09T04:33:44.683Z,99873.16
2024-02-09T04:36:13.478Z,99868.09
2024-02-09T04:38:42.623Z,99870.30
2024-02-09T04:41:11.196Z,99871.27
2024-02-09T04:43:39.786Z,99876.23
2024-02-09T04:46:08.790Z,99869.42
2024-02-09T04:48:37.576Z,99866.55
2024-02-09T04:51:10.358Z,99866.27
2024-02-09T04:53:39.482Z,99871.83
2024-02-09T04:56:08.025Z,99870.23
2024-02-09T04:58:39.108Z,99864.55
2024-02-09T05:01:10.068Z,99864.21
2024-02-09T05:03:42.031Z,99862.48
2024-02-09T05:06:10.783Z,99867.14
2024-02-09T05:08:40.749Z,99869.39
2024-02-09T05:11:09.672Z,99873.21
2024-02-09T05:13:39.086Z,99874.91
2024-02-09T05:16:12.315Z,99879.59
2024-02-09T05:18:41.952Z,99873.52
2024-02-09T05:21:12.849Z,99879.59
2024-02-09T05:23:42.867Z,99882.19
2024-02-09T05:26:12.414Z,99877.50
2024-02-09T05:28:46.151Z,99876.83
2024-02-09T05:31:24.515Z,99883.45
2024-02-09T05:33:53.765Z,99880.85
2024-02-09T05:36:24.991Z,99883.57
2024-02-09T05:39:02.331Z,99885.46
2024-02-09T05:41:32.140Z,99885.45
2024-02-09T05:44:01.430Z,99886.80
2024-02-09T05:46:30.333Z,99889.52
2024-02-09T05:48:59.485Z,99890.91
2024-02-09T05:51:28.263Z,99897.64
2024-02-09T05:53:58.295Z,99892.11
2024-02-09T05:56:29.191Z,99896.67
2024-02-09T05:58:58.496Z,99904.54
2024-02-09T06:01:34.554Z,99909.61
2024-02-09T06:04:03.622Z,99910.90
2024-02-09T06:06:32.536Z,99915.23
2024-02-09T06:09:03.218Z,99913.14
2024-02-09T06:11:31.772Z,99912.11
2024-02-09T06:14:02.333Z,99918.80
2024-02-09T06:16:32.361Z,99917.05
2024-02-09T06:19:01.506Z,99915.94
2024-02-09T06:21:30.161Z,99922.63
2024-02-09T06:23:58.862Z,99923.88
2024-02-09T06:26:27.499Z,99934.16
2024-02-09T06:28:56.124Z,99931.29
2024-02-09T06:31:28.664Z,99931.36
2024-02-09T06:34:00.686Z,99925.19
2024-02-09T06:36:31.172Z,99933.42
2024-02-09T06:39:00.853Z,99930.73
2024-02-09T06:41:30.778Z,99941.52
2024-02-09T06:44:00.104Z,99932.05
2024-02-09T06:46:28.908Z,99935.83
2024-02-09T06:48:58.160Z,99934.99
2024-02-09T06:51:26.895Z,99940.89
2024-02-09T06:53:56.793Z,99947.95
2024-02-09T06:56:25.744Z,99943.15
2024-02-09T06:58:59.699Z,99944.37
2024-02-09T07:01:32.731Z,99949.09
2024-02-09T07:04:01.503Z,99946.33
2024-02-09T07:06:30.167Z,99942.66
2024-02-09T07:08:59.662Z,99945.56
2024-02-09T07:11:50.330Z,99947.60
2024-02-09T07:14:27.138Z,99945.92
2024-02-09T07:17:09.654Z,99943.86
2024-02-09T07:19:39.863Z,99951.38
2024-02-09T07:22:14.406Z,99949.88
2024-02-09T07:24:46.064Z,99948.02
2024-02-09T07:27:25.297Z,99946.18
2024-02-09T07:29:58.948Z,99950.42
2024-02-09T07:32:37.441Z,99938.89
2024-02-09T07:35:25.590Z,99942.63
2024-02-09T07:37:59.038Z,99941.56
2024-02-09T07:40:27.706Z,99948.68
2024-02-09T07:42:58.497Z,99952.40
2024-02-09T07:45:33.624Z,99953.91
2024-02-09T07:48:11.245Z,99956.29
2024-02-09T07:51:00.881Z,99960.06
2024-02-09T07:53:35.721Z,99963.77
2024-02-09T07:56:11.090Z,99959.48
2024-02-09T07:58:53.213Z,99968.05
2024-02-09T08:01:25.160Z,99968.46
2024-02-09T08:04:03.568Z,99977.10
2024-02-09T08:06:42.484Z,99979.80
2024-02-09T08:09:26.361Z,99979.85
2024-02-09T08:11:59.354Z,99976.80
2024-02-09T08:14:29.982Z,99976.50
2024-02-09T08:17:21.358Z,99974.51
2024-02-09T08:19:52.778Z,99967.64
2024-02-09T08:22:24.358Z,99965.64
2024-02-09T08:24:57.490Z,99960.82
2024-02-09T08:27:26.727Z,99949.56
2024-02-09T08:30:05.937Z,99935.69
2024-02-09T08:32:37.230Z,99931.05
2024-02-09T08:35:07.637Z,99929.08
2024-02-09T08:37:38.464Z,99936.60
2024-02-09T08:40:11.608Z,99946.38
2024-02-09T08:42:41.860Z,99948.86
2024-02-09T08:45:11.777Z,99957.04
2024-02-09T08:47:40.891Z,99954.72
2024-02-09T08:50:09.872Z,99952.80
2024-02-09T08:52:39.513Z,99950.11
2024-02-09T08:55:11.159Z,99950.96
2024-02-09T08:57:42.129Z,99949.02
2024-02-09T09:00:21.287Z,99942.70
2024-02-09T09:02:51.751Z,99944.72
2024-02-09T09:05:20.484Z,99941.68
2024-02-09T09:07:58.825Z,99945.79
2024-02-09T09:10:28.059Z,99951.80
2024-02-09T09:13:01.197Z,99952.27
2024-02-09T09:15:29.968Z,99960.86
2024-02-09T09:18:02.504Z,99962.90
2024-02-09T09:20:31.078Z,99965.77
2024-02-09T09:22:59.829Z,99964.41
2024-02-09T09:25:43.321Z,99967.92
2024-02-09T09:28:33.134Z,99965.52
2024-02-09T09:31:02.350Z,99959.56
2024-02-09T09:33:30.785Z,99956.02
2024-02-09T09:36:04.308Z,99957.20
2024-02-09T09:38:32.746Z,99957.27
2024-02-09T09:41:01.178Z,99956.38
2024-02-09T09:43:32.571Z,99959.77
2024-02-09T09:46:02.117Z,99951.02
2024-02-09T09:48:34.831Z,99951.75
2024-02-09T09:51:21.821Z,99944.00
2024-02-09T09:53:54.886Z,99938.29
2024-02-09T09:56:38.035Z,99933.21
2024-02-09T09:59:08.236Z,99928.64
2024-02-09T10:01:50.422Z,99931.65
2024-02-09T10:04:20.063Z,99930.35
2024-02-09T10:06:52.140Z,99923.69
2024-02-09T10:09:26.770Z,99922.45
2024-02-09T10:11:55.923Z,99913.89
2024-02-09T10:14:25.214Z,99911.43
2024-02-09T10:16:58.302Z,99905.30
2024-02-09T10:19:26.991Z,99895.54
2024-02-09T10:21:58.795Z,99891.83
2024-02-09T10:24:48.819Z,99889.40
2024-02-09T10:27:23.916Z,99889.10
2024-02-09T10:29:56.211Z,99887.05
2024-02-09T10:32:44.072Z,99888.28
2024-02-09T10:35:12.742Z,99889.59
2024-02-09T10:38:02.126Z,99882.41
2024-02-09T10:40:31.206Z,99883.25
2024-02-09T10:43:13.880Z,99875.54
2024-02-09T10:45:45.683Z,99874.93
2024-02-09T10:48:21.383Z,99877.27
2024-02-09T10:50:55.802Z,99873.20
2024-02-09T10:53:28.437Z,99870.19
2024-02-09T10:56:05.130Z,99868.45
2024-02-09T10:58:35.436Z,99868.00
2024-02-09T11:01:07.347Z,99865.20
2024-02-09T11:03:35.935Z,99860.05
2024-02-09T11:06:06.240Z,99859.28
2024-02-09T11:08:35.645Z,99853.60
2024-02-09T11:11:05.451Z,99850.57
2024-02-09T11:13:35.471Z,99844.55
2024-02-09T11:16:04.588Z,99838.52
2024-02-09T11:18:37.565Z,99838.29
2024-02-09T11:21:08.568Z,99841.67
2024-02-09T11:23:38.980Z,99839.31
2024-02-09T11:26:12.345Z,99839.19
2024-02-09T11:28:41.890Z,99845.38
2024-02-09T11:31:12.426Z,99842.27
2024-02-09T11:33:43.187Z,99841.09
2024-02-09T11:36:11.834Z,99836.00
2024-02-09T11:38:40.484Z,99834.17
2024-02-09T11:41:10.065Z,99829.20
2024-02-09T11:43:38.681Z,99829.96
2024-02-09T11:46:08.732Z,99827.63
2024-02-09T11:48:40.728Z,99827.69
2024-02-09T11:51:09.170Z,99822.42
2024-02-09T11:53:39.227Z,99826.50
2024-02-09T11:56:08.549Z,99822.52
2024-02-09T11:58:37.823Z,99825.02
2024-02-09T12:01:06.630Z,99820.66
2024-02-09T12:03:35.512Z,99825.27
2024-02-09T12:06:07.131Z,99826.08
2024-02-09T12:08:36.017Z,99826.63
2024-02-09T12:11:07.651Z,99827.40
2024-02-09T12:13:40.299Z,99829.40
2024-02-09T12:16:09.072Z,99829.67
2024-02-09T12:18:37.366Z,99828.48
2024-02-09T12:23:53.119Z,99825.64
2024-02-09T12:26:26.177Z,99825.03
2024-02-09T12:28:55.577Z,99825.80
2024-02-09T12:31:26.111Z,99830.76
2024-02-09T12:33:56.451Z,99817.22
2024-02-09T12:36:43.403Z,99824.75
2024-02-09T12:39:13.536Z,99823.20
2024-02-09T12:41:58.207Z,99822.71
2024-02-09T12:44:33.913Z,99826.58
2024-02-09T12:47:08.729Z,99828.62
2024-02-09T12:49:38.745Z,99834.44
2024-02-09T12:52:19.539Z,99836.04
2024-02-09T12:54:56.402Z,99841.21
2024-02-09T12:57:25.491Z,99842.61
2024-02-09T12:59:54.756Z,99845.69
2024-02-09T13:23:39.498Z,99844.08
2024-02-09T13:26:19.540Z,99843.31
2024-02-09T13:28:48.309Z,99842.19
2024-02-09T13:31:15.807Z,99839.25
2024-02-09T13:33:45.283Z,99837.01
2024-02-09T13:36:24.862Z,99830.86
2024-02-09T13:38:54.460Z,99836.85
2024-02-09T13:41:22.733Z,99836.06
2024-02-09T13:43:52.532Z,99841.20
2024-02-09T13:46:48.272Z,99839.52
2024-02-09T13:49:15.986Z,99846.51
2024-02-09T13:51:45.251Z,99850.75
2024-02-09T13:54:27.400Z,99850.34
2024-02-09T13:57:05.340Z,99852.84
2024-02-09T13:59:36.801Z,99859.02
2024-02-09T14:02:04.820Z,99855.83
2024-02-09T14:04:39.791Z,99850.77
2024-02-09T14:07:28.186Z,99840.50
2024-02-09T14:09:56.388Z,99845.52
2024-02-09T14:12:30.194Z,99843.55
2024-02-09T14:14:57.505Z,99838.20
2024-02-09T14:17:27.095Z,99834.00
2024-02-09T14:19:54.852Z,99837.33
2024-02-09T14:22:22.221Z,99837.28
2024-02-09T14:25:04.710Z,99835.42
2024-02-09T14:27:35.830Z,99847.09
2024-02-09T14:30:11.491Z,99849.86
2024-02-09T14:32:56.490Z,99846.40
2024-02-09T14:35:28.058Z,99850.60
2024-02-09T14:38:03.801Z,99854.30
2024-02-09T14:41:02.999Z,99859.15
2024-02-09T14:43:42.350Z,99862.90
2024-02-09T14:49:53.246Z,99863.27
2024-02-09T14:52:31.252Z,99868.88
2024-02-09T14:55:29.284Z,99866.04
2024-02-09T14:58:06.050Z,99866.77
2024-02-09T15:00:39.122Z,99866.72
2024-02-09T15:03:11.412Z,99870.00
2024-02-09T15:05:46.426Z,99868.20
2024-02-09T15:08:22.744Z,99867.42
2024-02-09T15:10:55.030Z,99864.70
2024-02-09T15:13:29.196Z,99856.66
2024-02-09T15:16:05.126Z,99858.02
2024-02-09T15:18:42.495Z,99858.29
2024-02-09T15:21:19.452Z,99852.79
2024-02-09T15:23:55.910Z,99855.13
2024-02-09T15:26:33.141Z,99856.40
2024-02-09T15:29:06.198Z,99855.80
2024-02-09T15:31:35.421Z,99856.79
2024-02-09T15:34:13.358Z,99855.75
2024-02-09T15:36:48.463Z,99856.21
2024-02-09T15:39:17.154Z,99859.25
2024-02-09T15:41:46.747Z,99857.20
2024-02-09T15:44:15.985Z,99857.58
2024-02-09T15:46:50.404Z,99856.84
2024-02-09T15:49:33.022Z,99847.66
2024-02-09T15:52:02.937Z,99838.30
2024-02-09T15:54:32.552Z,99834.89
2024-02-09T15:57:11.190Z,99837.66
2024-02-09T15:59:49.037Z,99839.80
2024-02-09T16:02:20.962Z,99840.59
2024-02-09T16:04:54.737Z,99838.86
2024-02-09T16:07:23.634Z,99845.34
2024-02-09T16:09:56.140Z,99845.91
2024-02-09T16:12:35.277Z,99841.34
2024-02-09T16:15:06.741Z,99844.92
2024-02-09T16:17:52.994Z,99841.20
2024-02-09T16:20:26.439Z,99848.09
2024-02-09T16:22:55.472Z,99853.97
2024-02-09T16:25:24.682Z,99855.09
2024-02-09T16:27:54.609Z,99858.08
2024-02-09T16:30:25.392Z,99854.75
2024-02-09T16:33:07.615Z,99857.67
2024-02-09T16:35:49.902Z,99860.89
2024-02-09T16:38:18.719Z,99867.89
2024-02-09T16:40:48.369Z,99875.01
2024-02-09T16:43:20.143Z,99877.27
2024-02-09T16:45:48.798Z,99873.28
2024-02-09T16:48:17.523Z,99875.38
2024-02-09T16:50:49.607Z,99871.58
2024-02-09T16:53:18.294Z,99861.11
2024-02-09T16:55:47.100Z,99860.02
2024-02-09T16:58:15.889Z,99858.63
2024-02-09T17:00:53.186Z,99862.30
2024-02-09T17:03:31.123Z,99867.11
2024-02-09T17:05:59.919Z,99874.62
2024-02-09T17:08:34.794Z,99873.07
2024-02-09T17:11:20.221Z,99877.75
2024-02-09T17:14:11.804Z,99871.69
2024-02-09T17:17:03.030Z,99871.85
2024-02-09T17:19:36.956Z,99874.39
2024-02-09T17:22:10.646Z,99877.62
2024-02-09T17:24:41.589Z,99877.40
2024-02-09T17:27:12.309Z,99876.18
2024-02-09T17:29:53.827Z,99877.13
2024-02-09T17:32:37.090Z,99880.86
2024-02-09T17:35:07.886Z,99883.04
2024-02-09T17:37:37.187Z,99885.07
2024-02-09T17:40:07.086Z,99889.80
2024-02-09T17:42:35.833Z,99889.30
2024-02-09T17:45:05.437Z,99891.15
2024-02-09T17:47:36.620Z,99892.23
2024-02-09T17:50:07.135Z,99893.38
2024-02-09T17:52:36.391Z,99895.02
2024-02-09T17:55:06.262Z,99901.80
2024-02-09T17:57:35.313Z,99900.42
2024-02-09T18:00:07.327Z,99896.81
2024-02-09T18:02:36.083Z,99892.31
2024-02-09T18:05:17.121Z,99892.12
2024-02-09T18:07:46.222Z,99881.52
2024-02-09T18:10:18.857Z,99877.30
2024-02-09T18:12:48.344Z,99874.05
2024-02-09T18:15:21.437Z,99870.11
2024-02-09T18:17:51.150Z,99870.54
2024-02-09T18:20:23.273Z,99873.02
2024-02-09T18:22:52.915Z,99878.14
2024-02-09T18:25:23.141Z,99881.52
2024-02-09T18:27:52.294Z,99881.33
2024-02-09T18:30:22.154Z,99879.00
2024-02-09T18:32:58.472Z,99871.77
2024-02-09T18:35:30.468Z,99873.58
2024-02-09T18:38:00.911Z,99875.34
2024-02-09T18:40:29.931Z,99873.75
2024-02-09T18:43:00.213Z,99877.45
2024-02-09T18:45:29.255Z,99881.33
2024-02-09T18:47:57.955Z,99885.21
2024-02-09T18:50:27.763Z,99885.65
2024-02-09T18:52:56.359Z,99884.69
2024-02-09T18:56:06.123Z,99891.64
2024-02-09T18:58:37.731Z,99899.92
2024-02-09T19:01:11.801Z,99905.26
2024-02-09T19:03:44.270Z,99910.42
2024-02-09T19:06:12.798Z,99914.64
2024-02-09T19:08:43.570Z,99916.23
2024-02-09T19:11:14.064Z,99917.23
2024-02-09T19:13:43.398Z,99922.09
2024-02-09T19:16:13.188Z,99925.67
2024-02-09T19:18:42.016Z,99928.73
2024-02-09T19:21:15.332Z,99928.79
2024-02-09T19:23:46.479Z,99927.10
2024-02-09T19:26:15.173Z,99925.20
2024-02-09T19:28:44.660Z,99924.59
2024-02-09T19:31:16.265Z,99925.73
2024-02-09T19:33:53.089Z,99924.90
2024-02-09T19:36:24.111Z,99921.59
2024-02-09T19:38:52.906Z,99917.28
2024-02-09T19:41:24.848Z,99918.80
2024-02-09T19:43:54.102Z,99917.59
2024-02-09T19:46:25.227Z,99918.56
2024-02-09T19:49:06.077Z,99916.67
2024-02-09T19:51:39.401Z,99917.27
2024-02-09T19:54:08.260Z,99922.16
2024-02-09T19:56:36.989Z,99926.78
2024-02-09T19:59:07.886Z,99930.43
2024-02-09T20:01:36.902Z,99928.77
2024-02-09T20:04:11.464Z,99922.27
2024-02-09T20:06:46.351Z,99915.27
2024-02-09T20:09:16.281Z,99909.52
2024-02-09T20:12:13.092Z,99909.84
2024-02-09T20:14:46.110Z,99910.84
2024-02-09T20:17:17.448Z,99905.89
2024-02-09T20:19:46.608Z,99905.27
2024-02-09T20:22:15.760Z,99908.96
2024-02-09T20:24:50.812Z,99911.70
2024-02-09T20:27:20.276Z,99917.26
2024-02-09T20:29:51.613Z,99924.70
2024-02-09T20:32:21.985Z,99926.91
2024-02-09T20:34:52.401Z,99931.02
2024-02-09T20:37:23.452Z,99934.91
2024-02-09T20:39:52.921Z,99939.47
2024-02-09T20:42:22.506Z,99938.43
2024-02-09T20:44:51.681Z,99945.11
2024-02-09T20:47:23.900Z,99935.05
2024-02-09T20:53:37.886Z,99934.76
2024-02-09T20:56:07.957Z,99939.80
2024-02-09T20:58:41.710Z,99940.14
2024-02-09T21:01:11.785Z,99938.41
2024-02-09T21:03:41.173Z,99935.86
2024-02-09T21:06:13.558Z,99932.88
2024-02-09T21:08:42.634Z,99930.13
2024-02-09T21:11:12.133Z,99929.80
2024-02-09T21:13:42.227Z,99937.34
2024-02-09T21:16:12.466Z,99934.19
2024-02-09T21:18:41.924Z,99932.70
2024-02-09T21:21:12.583Z,99934.52
2024-02-09T21:23:41.819Z,99937.34
2024-02-09T21:26:10.755Z,99935.85
2024-02-09T21:28:39.594Z,99939.38
2024-02-09T21:31:08.554Z,99944.12
2024-02-09T21:33:38.014Z,99947.98
2024-02-09T21:36:08.189Z,99947.44
2024-02-09T21:38:37.312Z,99947.95
2024-02-09T21:41:06.081Z,99940.66
2024-02-09T21:43:36.676Z,99942.65
2024-02-09T21:46:07.027Z,99945.16
2024-02-09T21:48:40.039Z,99936.02
2024-02-09T21:51:10.855Z,99937.33
2024-02-09T21:53:39.657Z,99941.59
2024-02-09T21:56:11.506Z,99945.48
2024-02-09T21:58:41.722Z,99943.45
2024-02-09T22:01:10.635Z,99936.39
2024-02-09T22:03:39.572Z,99937.61
2024-02-09T22:06:08.397Z,99937.50
2024-02-09T22:08:40.485Z,99945.91
2024-02-09T22:11:12.418Z,99946.86
2024-02-09T22:13:41.863Z,99944.86
2024-02-09T22:16:10.950Z,99945.92
2024-02-09T22:18:39.907Z,99949.59
2024-02-09T22:21:10.113Z,99951.84
2024-02-09T22:23:43.939Z,99952.70
2024-02-09T22:26:15.902Z,99952.52
2024-02-09T22:28:44.971Z,99949.06
2024-02-09T22:31:38.160Z,99945.78
2024-02-09T22:34:08.505Z,99946.20
2024-02-09T22:36:37.291Z,99945.17
2024-02-09T22:39:06.736Z,99944.16
2024-02-09T22:41:36.700Z,99946.11
2024-02-09T22:44:05.569Z,99938.48
2024-02-09T22:46:35.310Z,99936.10
2024-02-09T22:49:04.165Z,99939.41
2024-02-09T22:51:33.488Z,99945.86
2024-02-09T22:54:03.183Z,99949.48
2024-02-09T22:56:32.043Z,99954.54
2024-02-09T22:59:02.056Z,99954.14
2024-02-09T23:01:31.603Z,99960.44
2024-02-09T23:04:01.110Z,99953.88
2024-02-09T23:06:32.022Z,99950.43
2024-02-09T23:09:01.854Z,99944.37
2024-02-09T23:11:30.675Z,99943.50
2024-02-09T23:14:02.172Z,99941.59
2024-02-09T23:16:30.844Z,99944.77
2024-02-09T23:19:00.017Z,99944.86
2024-02-09T23:21:30.993Z,99945.23
2024-02-09T23:23:59.901Z,99939.14
2024-02-09T23:26:29.036Z,99936.34
2024-02-09T23:28:57.936Z,99932.05
2024-02-09T23:31:32.265Z,99931.19
2024-02-09T23:34:03.292Z,99922.70
2024-02-09T23:36:34.559Z,99922.52
2024-02-09T23:39:06.669Z,99919.42
2024-02-09T23:41:36.722Z,99918.71
2024-02-09T23:44:06.269Z,99921.66
2024-02-09T23:46:37.121Z,99918.17
2024-02-09T23:49:07.394Z,99921.88
2024-02-09T23:51:38.011Z,99918.59
2024-02-09T23:54:06.773Z,99922.10
2024-02-09T23:56:36.179Z,99920.38
2024-02-09T23:59:05.655Z,99920.38
